createdAt,value
2022-09-10T00:01:28.153Z,1.90
2022-09-10T00:03:57.796Z,1.70
2022-09-10T00:06:27.928Z,1.80
2022-09-10T00:08:57.351Z,1.77
2022-09-10T00:11:26.586Z,2.07
2022-09-10T00:13:56.297Z,2.10
2022-09-10T00:16:24.486Z,1.40
2022-09-10T00:18:52.579Z,2.13
2022-09-10T00:21:22.451Z,2.30
2022-09-10T00:23:51.117Z,1.70
2022-09-10T00:26:21.777Z,1.97
2022-09-10T00:28:50.522Z,1.57
2022-09-10T00:31:19.299Z,2.00
2022-09-10T00:33:47.362Z,1.63
2022-09-10T00:36:16.835Z,1.70
2022-09-10T00:38:46.633Z,1.47
2022-09-10T00:41:16.395Z,1.70
2022-09-10T00:43:54.396Z,1.87
2022-09-10T00:46:38.194Z,2.00
2022-09-10T00:49:15.720Z,1.70
2022-09-10T00:51:44.883Z,1.63
2022-09-10T00:54:15.317Z,1.37
2022-09-10T00:56:44.621Z,1.50
2022-09-10T00:59:15.142Z,1.90
2022-09-10T01:01:43.845Z,1.43
2022-09-10T01:04:11.967Z,1.67
2022-09-10T01:06:41.531Z,1.70
2022-09-10T01:09:10.691Z,2.03
2022-09-10T01:12:04.566Z,2.53
2022-09-10T01:14:49.935Z,1.77
2022-09-10T01:17:26.971Z,1.93
2022-09-10T01:20:17.604Z,1.67
2022-09-10T01:23:05.664Z,1.80
2022-09-10T01:25:44.447Z,1.80
2022-09-10T01:28:19.452Z,1.53
2022-09-10T01:30:51.685Z,1.60
2022-09-10T01:33:27.676Z,1.70
2022-09-10T01:36:01.870Z,1.43
2022-09-10T01:38:33.055Z,1.30
2022-09-10T01:41:01.172Z,1.70
2022-09-10T01:43:30.482Z,1.30
2022-09-10T01:46:11.076Z,1.70
2022-09-10T01:49:09.468Z,2.07
2022-09-10T01:51:52.272Z,1.70
2022-09-10T01:54:33.601Z,1.73
2022-09-10T01:57:10.614Z,1.50
2022-09-10T01:59:47.094Z,1.73
2022-09-10T02:02:20.778Z,1.77
2022-09-10T02:04:51.550Z,1.57
2022-09-10T02:07:22.503Z,1.50
2022-09-10T02:09:51.921Z,1.60
2022-09-10T02:12:21.466Z,1.83
2022-09-10T02:14:51.424Z,1.60
2022-09-10T02:17:20.261Z,2.10
2022-09-10T02:19:51.656Z,1.97
2022-09-10T02:22:22.249Z,1.67
2022-09-10T02:24:50.542Z,1.70
2022-09-10T02:27:18.991Z,1.60
2022-09-10T02:29:47.092Z,1.63
2022-09-10T02:32:17.330Z,1.40
2022-09-10T02:34:45.387Z,1.57
2022-09-10T02:37:13.415Z,1.47
2022-09-10T02:39:41.399Z,2.20
2022-09-10T02:42:09.508Z,1.83
2022-09-10T02:44:37.560Z,1.90
2022-09-10T02:47:06.187Z,1.47
2022-09-10T02:49:35.779Z,1.73
2022-09-10T02:52:04.888Z,2.20
2022-09-10T02:54:32.787Z,1.60
2022-09-10T02:57:01.096Z,2.13
2022-09-10T02:59:29.067Z,1.67
2022-09-10T03:01:57.102Z,1.60
2022-09-10T03:04:25.155Z,1.40
2022-09-10T03:06:55.734Z,1.90
2022-09-10T03:09:23.946Z,1.73
2022-09-10T03:11:52.110Z,1.73
2022-09-10T03:14:22.333Z,1.60
2022-09-10T03:16:50.818Z,1.67
2022-09-10T03:19:18.819Z,1.63
2022-09-10T03:21:47.593Z,1.80
2022-09-10T03:24:17.041Z,1.87
2022-09-10T03:26:44.888Z,1.87
2022-09-10T03:29:13.388Z,2.00
2022-09-10T03:31:42.679Z,1.63
2022-09-10T03:34:12.550Z,1.67
2022-09-10T03:36:40.663Z,1.43
2022-09-10T03:39:08.585Z,1.40
2022-09-10T03:41:38.035Z,2.17
2022-09-10T03:44:06.521Z,1.90
2022-09-10T03:46:34.586Z,1.90
2022-09-10T03:49:02.684Z,1.83
2022-09-10T03:51:31.211Z,1.63
2022-09-10T03:54:00.045Z,1.80
2022-09-10T03:56:28.157Z,1.93
2022-09-10T03:58:57.502Z,1.93
2022-09-10T04:01:25.871Z,1.73
2022-09-10T04:03:56.816Z,1.97
2022-09-10T04:06:24.828Z,1.60
2022-09-10T04:08:53.555Z,1.93
2022-09-10T04:11:23.968Z,2.03
2022-09-10T04:13:52.179Z,1.83
2022-09-10T04:16:22.277Z,1.40
2022-09-10T04:18:50.920Z,1.87
2022-09-10T04:21:20.208Z,2.00
2022-09-10T04:23:48.093Z,2.00
2022-09-10T04:26:17.624Z,1.93
2022-09-10T04:28:45.881Z,1.60
2022-09-10T04:31:14.289Z,1.70
2022-09-10T04:33:44.435Z,1.63
2022-09-10T04:36:14.301Z,1.90
2022-09-10T04:38:43.473Z,1.70
2022-09-10T04:41:12.222Z,2.13
2022-09-10T04:43:40.853Z,1.67
2022-09-10T04:46:09.036Z,1.43
2022-09-10T04:48:37.204Z,1.60
2022-09-10T04:51:16.272Z,2.17
2022-09-10T04:53:45.573Z,1.50
2022-09-10T04:56:14.022Z,2.00
2022-09-10T04:58:42.332Z,1.37
2022-09-10T05:01:10.841Z,1.53
2022-09-10T05:03:38.973Z,2.40
2022-09-10T05:06:08.541Z,1.63
2022-09-10T05:08:36.612Z,2.00
2022-09-10T05:11:04.908Z,2.10
2022-09-10T05:13:32.910Z,2.20
2022-09-10T05:16:01.715Z,2.43
2022-09-10T05:18:29.878Z,1.90
2022-09-10T05:20:57.789Z,1.73
2022-09-10T05:23:27.410Z,1.70
2022-09-10T05:25:56.803Z,1.90
2022-09-10T05:28:25.113Z,1.90
2022-09-10T05:30:53.042Z,2.13
2022-09-10T05:33:21.506Z,1.73
2022-09-10T05:35:51.693Z,2.00
2022-09-10T05:38:20.469Z,1.97
2022-09-10T05:40:50.351Z,1.67
2022-09-10T05:43:18.373Z,2.10
2022-09-10T05:45:47.261Z,2.13
2022-09-10T05:48:15.345Z,1.93
2022-09-10T05:50:45.602Z,1.60
2022-09-10T05:53:14.296Z,1.67
2022-09-10T05:55:43.996Z,2.10
2022-09-10T05:58:13.986Z,2.30
2022-09-10T06:00:43.206Z,1.93
2022-09-10T06:03:11.962Z,2.40
2022-09-10T06:05:39.931Z,1.73
2022-09-10T06:08:09.118Z,1.73
2022-09-10T06:10:37.384Z,2.10
2022-09-10T06:13:07.233Z,2.23
2022-09-10T06:15:37.985Z,2.00
2022-09-10T06:18:05.870Z,1.80
2022-09-10T06:20:34.491Z,1.90
2022-09-10T06:23:02.354Z,2.13
2022-09-10T06:25:31.219Z,1.70
2022-09-10T06:27:59.293Z,1.57
2022-09-10T06:30:27.621Z,1.40
2022-09-10T06:32:57.544Z,1.70
2022-09-10T06:35:25.793Z,1.77
2022-09-10T06:37:53.772Z,1.40
2022-09-10T06:40:21.621Z,1.10
2022-09-10T06:42:49.694Z,2.00
2022-09-10T06:45:17.779Z,1.50
2022-09-10T06:48:34.748Z,1.50
2022-09-10T06:50:35.394Z,1.10
2022-09-10T06:53:03.260Z,1.60
2022-09-10T06:55:31.321Z,1.60
2022-09-10T06:58:00.948Z,0.97
2022-09-10T07:00:29.176Z,1.23
2022-09-10T07:02:57.124Z,1.30
2022-09-10T07:05:27.558Z,1.20
2022-09-10T07:07:56.934Z,1.10
2022-09-10T07:10:25.242Z,1.40
2022-09-10T07:12:53.228Z,1.38
2022-09-10T07:15:21.327Z,1.20
2022-09-10T07:17:49.307Z,1.20
2022-09-10T07:20:17.625Z,1.50
2022-09-10T07:22:46.055Z,1.35
2022-09-10T07:25:15.935Z,1.20
2022-09-10T07:27:43.917Z,1.15
2022-09-10T07:30:13.299Z,1.17
2022-09-10T07:32:41.524Z,1.35
2022-09-10T07:35:09.815Z,1.45
2022-09-10T07:37:39.295Z,1.00
2022-09-10T07:40:08.886Z,1.15
2022-09-10T07:42:38.240Z,1.10
2022-09-10T07:45:07.259Z,1.27
2022-09-10T07:47:35.033Z,1.63
2022-09-10T07:50:02.983Z,1.25
2022-09-10T07:52:30.877Z,0.95
2022-09-10T07:54:58.837Z,1.38
2022-09-10T07:57:26.806Z,1.38
2022-09-10T07:59:56.034Z,0.90
2022-09-10T08:02:25.902Z,1.30
2022-09-10T08:04:54.122Z,1.30
2022-09-10T08:07:22.138Z,0.90
2022-09-10T08:09:50.299Z,0.98
2022-09-10T08:12:18.822Z,1.08
2022-09-10T08:14:47.502Z,1.25
2022-09-10T08:17:16.800Z,1.05
2022-09-10T08:19:45.016Z,1.10
2022-09-10T08:22:14.382Z,1.98
2022-09-10T08:24:42.790Z,2.00
2022-09-10T08:27:11.513Z,1.25
2022-09-10T08:29:39.656Z,1.10
2022-09-10T08:32:08.338Z,0.90
2022-09-10T08:34:37.650Z,1.00
2022-09-10T08:37:05.815Z,1.00
2022-09-10T08:39:33.901Z,1.10
2022-09-10T08:42:05.043Z,0.95
2022-09-10T08:44:39.336Z,0.65
2022-09-10T08:47:21.487Z,0.95
2022-09-10T08:49:53.274Z,0.88
2022-09-10T08:52:29.893Z,0.50
2022-09-10T08:55:05.691Z,0.63
2022-09-10T08:57:38.271Z,0.90
2022-09-10T09:00:12.803Z,0.73
2022-09-10T09:02:50.608Z,0.90
2022-09-10T09:05:21.771Z,0.90
2022-09-10T09:07:51.366Z,1.02
2022-09-10T09:10:27.446Z,0.80
2022-09-10T09:13:23.154Z,0.70
2022-09-10T09:15:58.343Z,0.90
2022-09-10T09:18:33.895Z,0.77
2022-09-10T09:21:09.868Z,1.00
2022-09-10T09:24:02.724Z,0.70
2022-09-10T09:26:36.620Z,0.65
2022-09-10T09:29:14.211Z,0.75
2022-09-10T09:31:47.845Z,1.00
2022-09-10T09:34:20.098Z,0.90
2022-09-10T09:36:51.867Z,0.60
2022-09-10T09:39:26.426Z,0.60
2022-09-10T09:42:03.266Z,0.88
2022-09-10T09:44:34.537Z,0.88
2022-09-10T09:47:02.797Z,0.85
2022-09-10T09:49:30.923Z,0.60
2022-09-10T09:52:02.734Z,1.00
2022-09-10T09:55:03.121Z,0.60
2022-09-10T09:57:22.502Z,0.75
2022-09-10T09:59:51.859Z,1.00
2022-09-10T10:02:22.706Z,0.70
2022-09-10T10:05:05.353Z,0.80
2022-09-10T10:07:36.276Z,0.82
2022-09-10T10:10:07.470Z,0.68
2022-09-10T10:12:36.700Z,0.70
2022-09-10T10:15:04.677Z,0.80
2022-09-10T10:17:38.462Z,1.00
2022-09-10T10:20:12.908Z,0.50
2022-09-10T10:22:43.366Z,0.77
2022-09-10T10:25:40.595Z,0.63
2022-09-10T10:28:20.347Z,1.08
2022-09-10T10:30:53.567Z,0.70
2022-09-10T10:33:28.003Z,0.60
2022-09-10T10:36:04.007Z,0.60
2022-09-10T10:38:35.512Z,0.73
2022-09-10T10:41:51.437Z,0.80
2022-09-10T10:44:44.884Z,0.70
2022-09-10T10:47:26.878Z,0.60
2022-09-10T10:50:06.433Z,0.70
2022-09-10T10:52:41.657Z,0.50
2022-09-10T10:55:23.113Z,0.60
2022-09-10T10:58:21.977Z,0.80
2022-09-10T11:00:56.894Z,0.65
2022-09-10T11:03:30.333Z,0.70
2022-09-10T11:06:02.497Z,0.60
2022-09-10T11:08:36.849Z,1.00
2022-09-10T11:11:13.428Z,0.65
2022-09-10T11:13:46.833Z,0.65
2022-09-10T11:16:20.301Z,0.73
2022-09-10T11:18:54.118Z,0.73
2022-09-10T11:21:29.700Z,0.70
2022-09-10T11:24:02.927Z,0.90
2022-09-10T11:26:36.493Z,0.73
2022-09-10T11:29:18.421Z,0.60
2022-09-10T11:31:51.158Z,0.57
2022-09-10T11:34:27.622Z,0.68
2022-09-10T11:37:00.504Z,0.70
2022-09-10T11:39:35.129Z,0.60
2022-09-10T11:42:13.572Z,0.50
2022-09-10T11:44:52.136Z,0.70
2022-09-10T11:47:26.376Z,0.40
2022-09-10T11:50:01.054Z,0.50
2022-09-10T11:52:31.008Z,0.70
2022-09-10T11:54:59.866Z,0.70
2022-09-10T11:57:35.258Z,0.60
2022-09-10T12:00:11.975Z,0.50
2022-09-10T12:03:25.643Z,0.47
2022-09-10T12:06:02.659Z,0.70
2022-09-10T12:09:03.835Z,0.90
2022-09-10T12:11:39.653Z,0.60
2022-09-10T12:14:14.918Z,0.60
2022-09-10T12:16:46.565Z,0.50
2022-09-10T12:19:26.328Z,0.60
2022-09-10T12:21:58.819Z,0.57
2022-09-10T12:24:31.537Z,0.63
2022-09-10T12:27:01.559Z,0.50
2022-09-10T12:29:34.255Z,1.10
2022-09-10T12:32:32.525Z,0.50
2022-09-10T12:35:46.461Z,0.80
2022-09-10T12:38:55.689Z,0.70
2022-09-10T12:42:01.919Z,0.60
2022-09-10T12:44:45.717Z,0.70
2022-09-10T12:47:50.444Z,1.00
2022-09-10T12:50:31.021Z,0.57
2022-09-10T12:53:25.928Z,0.73
2022-09-10T12:56:02.276Z,0.90
2022-09-10T13:01:41.460Z,0.57
2022-09-10T13:04:27.100Z,1.00
2022-09-10T13:06:58.008Z,0.70
2022-09-10T13:09:29.682Z,0.70
2022-09-10T13:12:04.195Z,0.68
2022-09-10T13:14:38.193Z,0.68
2022-09-10T13:17:07.738Z,0.70
2022-09-10T13:19:52.388Z,1.10
2022-09-10T13:22:57.657Z,0.88
2022-09-10T13:25:36.992Z,0.80
2022-09-10T13:28:43.749Z,0.90
2022-09-10T13:31:18.714Z,1.00
2022-09-10T13:34:20.813Z,0.90
2022-09-10T13:37:03.166Z,1.10
2022-09-10T13:40:03.741Z,1.02
2022-09-10T13:42:48.774Z,2.60
2022-09-10T13:45:23.696Z,1.60
2022-09-10T13:48:01.039Z,2.03
2022-09-10T13:50:35.601Z,1.30
2022-09-10T13:53:08.251Z,7.45
2022-09-10T13:55:37.104Z,1.40
2022-09-10T13:58:11.963Z,1.73
2022-09-10T14:00:43.384Z,1.60
2022-09-10T14:03:25.104Z,1.35
2022-09-10T14:05:55.188Z,7.38
2022-09-10T14:08:26.057Z,5.68
2022-09-10T14:10:59.897Z,1.67
2022-09-10T14:13:33.374Z,1.92
2022-09-10T14:16:04.588Z,2.13
2022-09-10T14:18:42.901Z,1.55
2022-09-10T14:21:14.035Z,1.20
2022-09-10T14:23:45.801Z,1.95
2022-09-10T14:26:17.541Z,3.08
2022-09-10T14:28:57.740Z,2.55
2022-09-10T14:31:37.038Z,1.90
2022-09-10T14:34:32.230Z,1.27
2022-09-10T14:37:01.767Z,1.60
2022-09-10T14:39:33.192Z,1.50
2022-09-10T14:42:23.266Z,1.80
2022-09-10T14:44:51.243Z,1.17
2022-09-10T14:47:32.407Z,1.30
2022-09-10T14:50:28.953Z,1.20
2022-09-10T14:52:57.080Z,1.58
2022-09-10T14:55:26.040Z,1.30
2022-09-10T14:57:55.482Z,1.20
2022-09-10T15:00:23.582Z,1.45
2022-09-10T15:02:53.385Z,1.42
2022-09-10T15:05:21.413Z,1.20
2022-09-10T15:07:50.709Z,1.70
2022-09-10T15:10:18.496Z,1.63
2022-09-10T15:12:49.918Z,1.90
2022-09-10T15:15:19.445Z,2.15
2022-09-10T15:17:47.812Z,1.85
2022-09-10T15:20:16.936Z,2.20
2022-09-10T15:22:44.907Z,1.88
2022-09-10T15:25:33.865Z,1.50
2022-09-10T15:28:04.159Z,1.10
2022-09-10T15:30:32.123Z,1.23
2022-09-10T15:33:00.115Z,1.17
2022-09-10T15:35:28.230Z,1.48
2022-09-10T15:37:56.500Z,1.60
2022-09-10T15:40:26.039Z,0.93
2022-09-10T15:42:53.757Z,1.05
2022-09-10T15:45:21.654Z,1.45
2022-09-10T15:47:49.450Z,1.40
2022-09-10T15:50:17.784Z,1.50
2022-09-10T15:52:45.941Z,1.70
2022-09-10T15:55:13.966Z,1.65
2022-09-10T15:57:43.235Z,1.23
2022-09-10T16:00:14.464Z,2.00
2022-09-10T16:02:43.042Z,1.40
2022-09-10T16:05:11.067Z,1.63
2022-09-10T16:07:39.120Z,1.67
2022-09-10T16:10:09.248Z,1.67
2022-09-10T16:12:37.525Z,1.67
2022-09-10T16:15:07.715Z,2.10
2022-09-10T16:17:35.774Z,3.42
2022-09-10T16:20:04.108Z,2.53
2022-09-10T16:22:32.232Z,2.70
2022-09-10T16:25:00.145Z,2.30
2022-09-10T16:27:28.168Z,1.92
2022-09-10T16:29:56.178Z,2.78
2022-09-10T16:32:25.766Z,2.22
2022-09-10T16:34:53.514Z,2.25
2022-09-10T16:37:23.318Z,2.80
2022-09-10T16:39:51.367Z,2.92
2022-09-10T16:42:19.507Z,3.70
2022-09-10T16:44:47.509Z,6.68
2022-09-10T16:47:15.338Z,7.38
2022-09-10T16:49:44.889Z,6.97
2022-09-10T16:52:12.975Z,10.25
2022-09-10T16:54:42.308Z,14.15
2022-09-10T16:57:10.317Z,12.35
2022-09-10T16:59:38.219Z,19.13
2022-09-10T17:02:07.498Z,19.80
2022-09-10T17:04:35.902Z,14.35
2022-09-10T17:07:05.310Z,14.18
2022-09-10T17:09:33.379Z,14.10
2022-09-10T17:12:01.737Z,11.82
2022-09-10T17:14:29.727Z,11.70
2022-09-10T17:16:58.695Z,11.43
2022-09-10T17:19:27.741Z,10.02
2022-09-10T17:21:56.868Z,10.43
2022-09-10T17:24:27.395Z,9.63
2022-09-10T17:26:56.351Z,8.52
2022-09-10T17:29:26.000Z,9.27
2022-09-10T17:31:55.460Z,8.50
2022-09-10T17:34:24.653Z,9.57
2022-09-10T17:36:53.261Z,8.07
2022-09-10T17:39:21.687Z,7.10
2022-09-10T17:41:55.264Z,7.45
2022-09-10T17:44:24.338Z,7.93
2022-09-10T17:46:52.364Z,8.60
2022-09-10T17:49:20.323Z,8.45
2022-09-10T17:51:48.402Z,9.52
2022-09-10T17:54:16.385Z,11.90
2022-09-10T17:56:44.243Z,12.23
2022-09-10T17:59:15.006Z,13.18
2022-09-10T18:01:43.215Z,11.90
2022-09-10T18:04:14.252Z,12.63
2022-09-10T18:06:44.719Z,11.53
2022-09-10T18:09:15.501Z,11.77
2022-09-10T18:11:43.867Z,11.52
2022-09-10T18:14:18.538Z,11.50
2022-09-10T18:16:47.427Z,10.25
2022-09-10T18:19:17.404Z,9.87
2022-09-10T18:21:47.431Z,9.87
2022-09-10T18:24:18.254Z,9.20
2022-09-10T18:26:48.174Z,9.90
2022-09-10T18:29:19.053Z,10.33
2022-09-10T18:31:49.094Z,9.27
2022-09-10T18:34:23.045Z,10.17
2022-09-10T18:36:53.617Z,9.65
2022-09-10T18:39:22.687Z,11.30
2022-09-10T18:41:50.878Z,11.03
2022-09-10T18:44:22.445Z,11.43
2022-09-10T18:46:52.707Z,9.27
2022-09-10T18:49:23.472Z,8.17
2022-09-10T18:51:52.242Z,7.20
2022-09-10T18:54:21.114Z,8.17
2022-09-10T18:56:50.391Z,8.33
2022-09-10T18:59:21.616Z,7.93
2022-09-10T19:01:51.508Z,7.30
2022-09-10T19:04:23.978Z,7.80
2022-09-10T19:06:52.047Z,7.40
2022-09-10T19:09:22.550Z,6.60
2022-09-10T19:11:53.068Z,6.33
2022-09-10T19:14:25.955Z,9.07
2022-09-10T19:16:56.389Z,9.57
2022-09-10T19:19:26.069Z,9.50
2022-09-10T19:21:57.438Z,9.70
2022-09-10T19:24:44.129Z,10.10
2022-09-10T19:27:14.837Z,9.57
2022-09-10T19:29:44.547Z,9.77
2022-09-10T19:32:17.235Z,9.20
2022-09-10T19:34:45.637Z,10.73
2022-09-10T19:37:14.004Z,10.60
2022-09-10T19:39:43.144Z,9.37
2022-09-10T19:42:13.562Z,13.37
2022-09-10T19:44:43.547Z,15.13
2022-09-10T19:47:13.046Z,15.03
2022-09-10T19:49:45.142Z,10.87
2022-09-10T19:52:15.090Z,12.13
2022-09-10T19:54:43.236Z,12.43
2022-09-10T19:57:15.047Z,10.87
2022-09-10T19:59:45.211Z,9.70
2022-09-10T20:02:13.813Z,10.00
2022-09-10T20:04:42.465Z,9.27
2022-09-10T20:07:10.647Z,10.17
2022-09-10T20:09:40.083Z,9.77
2022-09-10T20:12:12.165Z,10.07
2022-09-10T20:14:40.593Z,9.83
2022-09-10T20:17:10.653Z,9.30
2022-09-10T20:19:40.156Z,9.83
2022-09-10T20:22:08.198Z,9.93
2022-09-10T20:24:36.244Z,8.93
2022-09-10T20:27:07.917Z,8.93
2022-09-10T20:29:36.430Z,9.87
2022-09-10T20:32:05.645Z,9.40
2022-09-10T20:34:36.830Z,10.37
2022-09-10T20:37:07.095Z,11.10
2022-09-10T20:39:36.479Z,9.60
2022-09-10T20:42:05.293Z,8.97
2022-09-10T20:44:34.108Z,9.70
2022-09-10T20:47:03.601Z,9.40
2022-09-10T20:49:31.976Z,9.83
2022-09-10T20:52:04.398Z,9.77
2022-09-10T20:54:32.537Z,10.17
2022-09-10T20:57:01.861Z,10.37
2022-09-10T20:59:30.764Z,8.80
2022-09-10T21:02:03.730Z,8.67
2022-09-10T21:04:33.354Z,8.50
2022-09-10T21:07:03.008Z,7.90
2022-09-10T21:09:42.378Z,8.37
2022-09-10T21:12:11.524Z,8.30
2022-09-10T21:14:39.688Z,8.20
2022-09-10T21:17:09.404Z,6.87
2022-09-10T21:19:37.503Z,7.20
2022-09-10T21:22:06.923Z,8.20
2022-09-10T21:24:35.511Z,9.47
2022-09-10T21:27:04.258Z,8.47
2022-09-10T21:29:32.973Z,10.93
2022-09-10T21:32:01.136Z,11.77
2022-09-10T21:34:29.507Z,11.47
2022-09-10T21:36:58.949Z,9.27
2022-09-10T21:39:28.666Z,8.10
2022-09-10T21:42:01.508Z,7.60
2022-09-10T21:44:29.581Z,8.30
2022-09-10T21:46:57.950Z,8.30
2022-09-10T21:49:26.711Z,8.27
2022-09-10T21:51:55.341Z,9.50
2022-09-10T21:54:24.282Z,9.83
2022-09-10T21:56:54.170Z,8.40
2022-09-10T21:59:22.234Z,7.23
2022-09-10T22:01:51.484Z,9.03
2022-09-10T22:04:22.726Z,7.33
2022-09-10T22:06:56.929Z,7.83
2022-09-10T22:09:26.558Z,8.30
2022-09-10T22:11:59.256Z,8.53
2022-09-10T22:14:30.942Z,7.50
2022-09-10T22:17:00.131Z,6.40
2022-09-10T22:19:30.551Z,7.83
2022-09-10T22:21:58.612Z,7.57
2022-09-10T22:24:27.038Z,7.83
2022-09-10T22:26:56.344Z,8.07
2022-09-10T22:29:25.264Z,7.43
2022-09-10T22:31:53.706Z,8.20
2022-09-10T22:34:22.629Z,9.13
2022-09-10T22:36:51.114Z,9.10
2022-09-10T22:39:21.150Z,7.97
2022-09-10T22:41:50.201Z,7.87
2022-09-10T22:44:20.207Z,7.37
2022-09-10T22:46:48.431Z,7.47
2022-09-10T22:49:17.002Z,6.97
2022-09-10T22:51:45.907Z,7.43
2022-09-10T22:54:13.855Z,7.40
2022-09-10T22:56:42.172Z,7.00
2022-09-10T22:59:13.677Z,7.73
2022-09-10T23:01:47.602Z,7.67
2022-09-10T23:04:16.456Z,7.37
2022-09-10T23:06:44.723Z,8.27
2022-09-10T23:09:14.770Z,7.70
2022-09-10T23:11:44.115Z,7.07
2022-09-10T23:14:14.062Z,7.20
2022-09-10T23:16:44.903Z,6.67
2022-09-10T23:19:14.507Z,7.37
2022-09-10T23:21:43.896Z,6.97
2022-09-10T23:24:14.205Z,7.57
2022-09-10T23:26:42.514Z,6.53
2022-09-10T23:29:10.992Z,6.07
2022-09-10T23:31:41.051Z,6.63
2022-09-10T23:34:13.759Z,6.47
2022-09-10T23:36:43.893Z,7.40
2022-09-10T23:39:14.521Z,5.37
2022-09-10T23:41:42.940Z,6.77
2022-09-10T23:44:11.247Z,5.83
2022-09-10T23:46:39.908Z,5.77
2022-09-10T23:49:09.160Z,5.93
2022-09-10T23:51:39.073Z,5.73
2022-09-10T23:54:07.114Z,6.03
2022-09-10T23:56:35.378Z,5.60
2022-09-10T23:59:03.618Z,5.67
